createdAt,value
2022-12-03T00:01:19.477Z,2.40
2022-12-03T00:03:46.276Z,2.40
2022-12-03T00:06:13.061Z,2.40
2022-12-03T00:08:39.824Z,2.40
2022-12-03T00:11:06.488Z,2.40
2022-12-03T00:13:33.120Z,2.40
2022-12-03T00:15:59.852Z,2.40
2022-12-03T00:18:26.526Z,2.30
2022-12-03T00:20:53.187Z,2.40
2022-12-03T00:23:19.846Z,2.40
2022-12-03T00:25:46.540Z,2.40
2022-12-03T00:28:14.179Z,2.40
2022-12-03T00:30:40.864Z,2.30
2022-12-03T00:33:07.554Z,2.40
2022-12-03T00:35:34.354Z,2.40
2022-12-03T00:38:01.026Z,2.40
2022-12-03T00:40:27.703Z,2.40
2022-12-03T00:42:54.357Z,2.40
2022-12-03T00:45:21.019Z,2.40
2022-12-03T00:47:47.649Z,2.40
2022-12-03T00:50:14.267Z,2.40
2022-12-03T00:52:40.928Z,2.40
2022-12-03T00:55:07.727Z,2.30
2022-12-03T00:57:34.527Z,2.30
2022-12-03T01:00:01.206Z,2.40
2022-12-03T01:02:27.897Z,2.40
2022-12-03T01:04:54.744Z,2.30
2022-12-03T01:07:21.616Z,2.30
2022-12-03T01:09:48.389Z,2.30
2022-12-03T01:12:16.057Z,2.40
2022-12-03T01:14:42.650Z,2.30
2022-12-03T01:17:09.302Z,2.30
2022-12-03T01:19:36.239Z,2.30
2022-12-03T01:22:02.899Z,2.30
2022-12-03T01:24:29.572Z,2.30
2022-12-03T01:26:56.822Z,2.30
2022-12-03T01:29:23.771Z,2.30
2022-12-03T01:32:09.057Z,2.40
2022-12-03T01:34:35.689Z,2.30
2022-12-03T01:37:02.432Z,2.30
2022-12-03T01:39:29.117Z,2.30
2022-12-03T01:41:56.342Z,2.40
2022-12-03T01:44:27.895Z,2.30
2022-12-03T01:46:55.574Z,2.30
2022-12-03T01:49:24.928Z,2.30
2022-12-03T01:51:52.454Z,2.20
2022-12-03T01:54:33.111Z,2.30
2022-12-03T01:56:59.795Z,2.30
2022-12-03T01:59:32.207Z,2.20
2022-12-03T02:01:59.352Z,2.20
2022-12-03T02:04:26.260Z,2.20
2022-12-03T02:06:52.977Z,2.20
2022-12-03T02:09:19.785Z,2.20
2022-12-03T02:11:48.418Z,2.10
2022-12-03T02:14:18.283Z,2.10
2022-12-03T02:16:45.082Z,2.20
2022-12-03T02:19:29.459Z,2.10
2022-12-03T02:22:03.908Z,2.10
2022-12-03T02:24:37.896Z,2.10
2022-12-03T02:27:04.559Z,2.10
2022-12-03T02:29:31.244Z,2.10
2022-12-03T02:31:57.997Z,2.00
2022-12-03T02:34:35.660Z,2.00
2022-12-03T02:37:03.445Z,2.00
2022-12-03T02:39:30.168Z,2.00
2022-12-03T02:42:15.527Z,1.90
2022-12-03T02:44:42.222Z,1.90
2022-12-03T02:47:09.180Z,1.90
2022-12-03T02:49:35.930Z,1.90
2022-12-03T02:52:03.124Z,1.90
2022-12-03T02:54:29.824Z,1.90
2022-12-03T02:56:56.502Z,1.90
2022-12-03T02:59:23.147Z,2.00
2022-12-03T03:01:49.933Z,2.00
2022-12-03T03:04:16.766Z,2.00
2022-12-03T03:06:43.473Z,2.00
2022-12-03T03:09:10.170Z,2.00
2022-12-03T03:11:36.764Z,2.00
2022-12-03T03:14:03.530Z,2.00
2022-12-03T03:16:30.274Z,2.00
2022-12-03T03:18:56.950Z,2.00
2022-12-03T03:21:23.632Z,2.00
2022-12-03T03:23:50.291Z,2.00
2022-12-03T03:26:16.986Z,2.00
2022-12-03T03:28:46.524Z,2.10
2022-12-03T03:31:15.192Z,2.00
2022-12-03T03:33:44.520Z,2.00
2022-12-03T03:36:11.763Z,2.00
2022-12-03T03:38:39.223Z,2.00
2022-12-03T03:41:06.030Z,2.00
2022-12-03T03:43:34.840Z,2.10
2022-12-03T03:46:03.570Z,2.00
2022-12-03T03:48:30.459Z,2.10
2022-12-03T03:50:57.355Z,2.00
2022-12-03T03:53:24.374Z,2.00
2022-12-03T03:55:51.322Z,2.00
2022-12-03T03:58:17.998Z,2.00
2022-12-03T04:00:45.213Z,2.00
2022-12-03T04:03:12.682Z,2.00
2022-12-03T04:05:39.572Z,1.90
2022-12-03T04:08:06.339Z,1.90
2022-12-03T04:10:51.876Z,2.00
2022-12-03T04:13:18.522Z,2.00
2022-12-03T04:15:45.203Z,2.00
2022-12-03T04:18:33.646Z,2.00
2022-12-03T04:21:18.846Z,2.00
2022-12-03T04:23:45.505Z,2.00
2022-12-03T04:26:31.074Z,2.00
2022-12-03T04:28:57.967Z,2.10
2022-12-03T04:31:43.391Z,2.10
2022-12-03T04:34:28.960Z,2.10
2022-12-03T04:36:55.770Z,2.10
2022-12-03T04:39:22.584Z,2.10
2022-12-03T04:41:49.256Z,2.20
2022-12-03T04:44:35.761Z,2.20
2022-12-03T04:47:04.074Z,2.20
2022-12-03T04:49:30.812Z,2.10
2022-12-03T04:51:57.529Z,2.10
2022-12-03T04:54:24.226Z,2.10
2022-12-03T04:56:50.867Z,2.20
2022-12-03T04:59:17.538Z,2.20
2022-12-03T05:01:44.804Z,2.20
2022-12-03T05:04:12.422Z,2.20
2022-12-03T05:06:39.180Z,2.20
2022-12-03T05:09:05.807Z,2.20
2022-12-03T05:11:32.523Z,2.20
2022-12-03T05:13:59.213Z,2.20
2022-12-03T05:16:26.034Z,2.20
2022-12-03T05:18:52.697Z,2.20
2022-12-03T05:21:19.347Z,2.20
2022-12-03T05:23:46.151Z,2.20
2022-12-03T05:26:12.785Z,2.20
2022-12-03T05:28:39.520Z,2.20
2022-12-03T05:31:06.396Z,2.30
2022-12-03T05:33:33.133Z,2.30
2022-12-03T05:35:59.955Z,2.30
2022-12-03T05:38:26.963Z,2.30
2022-12-03T05:40:53.692Z,2.20
2022-12-03T05:43:20.413Z,2.20
2022-12-03T05:45:47.117Z,2.20
2022-12-03T05:48:14.985Z,2.20
2022-12-03T05:50:46.044Z,2.30
2022-12-03T05:53:13.143Z,2.30
2022-12-03T05:55:39.821Z,2.30
2022-12-03T05:58:06.921Z,2.30
2022-12-03T06:00:42.465Z,2.40
2022-12-03T06:03:10.141Z,2.40
2022-12-03T06:05:36.972Z,2.40
2022-12-03T06:08:03.831Z,2.40
2022-12-03T06:10:30.575Z,2.40
2022-12-03T06:12:57.269Z,2.40
2022-12-03T06:15:23.990Z,2.40
2022-12-03T06:17:50.733Z,2.30
2022-12-03T06:20:19.145Z,2.30
2022-12-03T06:22:45.929Z,2.30
2022-12-03T06:25:12.804Z,2.20
2022-12-03T06:27:39.486Z,2.20
2022-12-03T06:30:08.489Z,2.10
2022-12-03T06:32:35.233Z,2.20
2022-12-03T06:35:02.138Z,2.20
2022-12-03T06:37:28.866Z,2.20
2022-12-03T06:39:55.531Z,2.20
2022-12-03T06:42:22.513Z,2.20
2022-12-03T06:44:49.177Z,2.20
2022-12-03T06:47:15.782Z,2.20
2022-12-03T06:49:42.428Z,2.20
2022-12-03T06:52:09.031Z,2.30
2022-12-03T06:54:35.850Z,2.30
2022-12-03T06:57:02.646Z,2.30
2022-12-03T06:59:29.373Z,2.30
2022-12-03T07:01:56.079Z,2.40
2022-12-03T07:04:22.826Z,2.40
2022-12-03T07:06:49.450Z,2.40
2022-12-03T07:09:17.059Z,2.40
2022-12-03T07:11:43.729Z,2.40
2022-12-03T07:14:14.065Z,2.40
2022-12-03T07:16:43.416Z,2.40
2022-12-03T07:19:10.441Z,2.40
2022-12-03T07:21:37.154Z,2.40
2022-12-03T07:24:04.011Z,2.40
2022-12-03T07:26:30.740Z,2.40
2022-12-03T07:28:57.389Z,2.40
2022-12-03T07:31:24.209Z,2.50
2022-12-03T07:33:50.897Z,2.50
2022-12-03T07:36:17.609Z,2.50
2022-12-03T07:38:44.506Z,2.50
2022-12-03T07:41:11.330Z,2.50
2022-12-03T07:43:37.949Z,2.60
2022-12-03T07:46:04.661Z,2.60
2022-12-03T07:48:31.365Z,2.60
2022-12-03T07:50:58.066Z,2.60
2022-12-03T07:53:24.712Z,2.70
2022-12-03T07:55:51.316Z,2.60
2022-12-03T07:58:17.983Z,2.70
2022-12-03T08:00:44.629Z,2.70
2022-12-03T08:03:11.313Z,2.70
2022-12-03T08:05:37.978Z,2.60
2022-12-03T08:08:05.185Z,2.70
2022-12-03T08:10:31.913Z,2.70
2022-12-03T08:12:59.352Z,2.70
2022-12-03T08:15:29.333Z,2.80
2022-12-03T08:18:00.347Z,2.80
2022-12-03T08:20:33.383Z,2.70
2022-12-03T08:23:02.235Z,2.70
2022-12-03T08:25:30.170Z,2.80
2022-12-03T08:28:00.493Z,2.80
2022-12-03T08:30:29.310Z,2.90
2022-12-03T08:32:57.884Z,3.00
2022-12-03T08:35:26.912Z,3.00
2022-12-03T08:38:01.875Z,3.00
2022-12-03T08:40:34.697Z,3.10
2022-12-03T08:43:09.261Z,3.10
2022-12-03T08:45:39.930Z,3.20
2022-12-03T08:48:19.168Z,3.20
2022-12-03T08:50:46.197Z,3.20
2022-12-03T08:53:12.838Z,3.30
2022-12-03T08:55:42.429Z,3.30
2022-12-03T08:58:27.824Z,3.30
2022-12-03T09:00:59.862Z,3.30
2022-12-03T09:03:29.927Z,3.30
2022-12-03T09:05:56.688Z,3.30
2022-12-03T09:08:23.351Z,3.40
2022-12-03T09:10:50.055Z,3.40
2022-12-03T09:13:16.714Z,3.40
2022-12-03T09:15:43.376Z,3.50
2022-12-03T09:18:10.035Z,3.50
2022-12-03T09:20:36.682Z,3.60
2022-12-03T09:23:03.581Z,3.60
2022-12-03T09:25:30.295Z,3.70
2022-12-03T09:27:57.001Z,3.70
2022-12-03T09:30:23.711Z,3.80
2022-12-03T09:32:50.342Z,3.80
2022-12-03T09:35:17.224Z,3.90
2022-12-03T09:37:43.821Z,3.90
2022-12-03T09:40:10.883Z,4.00
2022-12-03T09:42:38.064Z,4.00
2022-12-03T09:45:07.443Z,4.10
2022-12-03T09:47:34.279Z,4.10
2022-12-03T09:50:01.018Z,4.10
2022-12-03T09:52:28.196Z,4.10
2022-12-03T09:54:55.401Z,4.00
2022-12-03T09:57:22.347Z,4.00
2022-12-03T09:59:49.075Z,4.00
2022-12-03T10:02:24.890Z,4.10
2022-12-03T10:04:53.162Z,4.10
2022-12-03T10:07:20.604Z,4.10
2022-12-03T10:09:47.344Z,4.10
2022-12-03T10:12:14.391Z,4.10
2022-12-03T10:14:41.739Z,4.00
2022-12-03T10:17:12.618Z,4.10
2022-12-03T10:19:44.620Z,4.10
2022-12-03T10:22:11.299Z,4.10
2022-12-03T10:24:38.197Z,4.10
2022-12-03T10:27:22.627Z,4.10
2022-12-03T10:30:30.921Z,4.10
2022-12-03T10:33:18.513Z,4.10
2022-12-03T10:36:10.244Z,4.10
2022-12-03T10:38:39.053Z,4.00
2022-12-03T10:42:20.136Z,4.00
2022-12-03T10:44:55.600Z,4.00
2022-12-03T10:47:25.796Z,4.10
2022-12-03T10:50:01.538Z,4.10
2022-12-03T10:52:29.797Z,4.20
2022-12-03T10:54:56.721Z,4.30
2022-12-03T10:57:23.863Z,4.30
2022-12-03T10:59:50.916Z,4.30
2022-12-03T11:02:24.075Z,4.20
2022-12-03T11:05:05.508Z,4.20
2022-12-03T11:07:32.554Z,4.30
2022-12-03T11:10:01.778Z,4.30
2022-12-03T11:12:57.648Z,4.40
2022-12-03T11:25:25.423Z,4.40
2022-12-03T11:31:36.362Z,4.40
2022-12-03T11:34:18.307Z,4.40
2022-12-03T11:37:04.886Z,4.50
2022-12-03T11:39:49.917Z,4.50
2022-12-03T11:42:25.909Z,4.60
2022-12-03T11:45:29.706Z,4.60
2022-12-03T11:47:59.374Z,4.60
2022-12-03T11:50:37.646Z,4.60
2022-12-03T11:53:23.737Z,4.60
2022-12-03T11:56:06.584Z,4.60
2022-12-03T11:59:13.451Z,4.60
2022-12-03T12:01:41.048Z,4.60
2022-12-03T12:04:26.153Z,4.60
2022-12-03T12:06:55.450Z,4.70
2022-12-03T12:09:40.957Z,4.70
2022-12-03T12:12:19.961Z,4.70
2022-12-03T12:14:46.713Z,4.70
2022-12-03T12:17:49.032Z,4.60
2022-12-03T12:20:27.858Z,4.60
2022-12-03T12:22:55.278Z,4.50
2022-12-03T12:25:34.258Z,4.50
2022-12-03T12:28:00.971Z,4.60
2022-12-03T12:30:27.840Z,4.60
2022-12-03T12:33:13.256Z,4.50
2022-12-03T12:35:40.675Z,4.50
2022-12-03T12:38:07.298Z,4.50
2022-12-03T12:40:40.585Z,4.60
2022-12-03T12:43:25.197Z,4.50
2022-12-03T12:45:56.787Z,4.50
2022-12-03T12:48:26.114Z,4.40
2022-12-03T12:51:12.176Z,4.40
2022-12-03T12:53:39.613Z,4.40
2022-12-03T12:56:09.565Z,4.30
2022-12-03T12:58:38.333Z,4.20
2022-12-03T13:01:07.677Z,4.20
2022-12-03T13:03:36.896Z,4.20
2022-12-03T13:06:07.362Z,4.20
2022-12-03T13:08:38.039Z,4.20
2022-12-03T13:11:05.335Z,4.20
2022-12-03T13:13:43.728Z,4.20
2022-12-03T13:16:17.188Z,4.10
2022-12-03T13:18:53.743Z,4.00
2022-12-03T13:21:38.183Z,3.90
2022-12-03T13:24:26.998Z,3.90
2022-12-03T13:26:56.080Z,3.90
2022-12-03T13:29:23.395Z,3.90
2022-12-03T13:31:57.559Z,3.90
2022-12-03T13:34:26.155Z,3.90
2022-12-03T13:36:58.095Z,3.80
2022-12-03T13:39:33.193Z,3.80
2022-12-03T13:42:34.040Z,3.90
2022-12-03T13:45:01.586Z,3.90
2022-12-03T13:47:28.566Z,3.90
2022-12-03T13:49:57.986Z,3.80
2022-12-03T13:52:25.552Z,3.70
2022-12-03T13:54:56.125Z,3.80
2022-12-03T13:57:23.095Z,3.80
2022-12-03T13:59:49.849Z,3.80
2022-12-03T14:02:16.645Z,3.80
2022-12-03T14:04:50.368Z,3.70
2022-12-03T14:07:18.782Z,3.80
2022-12-03T14:09:45.599Z,3.70
2022-12-03T14:12:27.594Z,3.60
2022-12-03T14:14:54.332Z,3.60
2022-12-03T14:17:21.300Z,3.50
2022-12-03T14:19:48.134Z,3.50
2022-12-03T14:22:14.792Z,3.50
2022-12-03T14:24:41.525Z,3.50
2022-12-03T14:27:08.393Z,3.60
2022-12-03T14:29:35.251Z,3.60
2022-12-03T14:32:02.127Z,3.60
2022-12-03T14:34:28.931Z,3.70
2022-12-03T14:36:55.834Z,3.60
2022-12-03T14:39:40.937Z,3.70
2022-12-03T14:42:13.729Z,3.70
2022-12-03T14:44:49.978Z,3.80
2022-12-03T14:47:17.916Z,3.80
2022-12-03T14:49:44.756Z,3.80
2022-12-03T14:52:12.704Z,3.70
2022-12-03T14:54:42.336Z,3.60
2022-12-03T14:57:09.758Z,3.60
2022-12-03T14:59:47.598Z,3.60
2022-12-03T15:02:14.516Z,3.60
2022-12-03T15:04:46.365Z,3.60
2022-12-03T15:07:13.091Z,3.70
2022-12-03T15:09:39.762Z,3.70
2022-12-03T15:12:06.622Z,3.70
2022-12-03T15:14:33.452Z,3.60
2022-12-03T15:17:00.230Z,3.60
2022-12-03T15:19:42.342Z,3.60
2022-12-03T15:22:09.003Z,3.50
2022-12-03T15:24:35.624Z,3.50
2022-12-03T15:27:02.377Z,3.50
2022-12-03T15:29:34.184Z,3.40
2022-12-03T15:32:03.494Z,3.40
2022-12-03T15:34:32.793Z,3.50
2022-12-03T15:36:59.534Z,3.50
2022-12-03T15:39:26.408Z,3.50
2022-12-03T15:41:53.250Z,3.50
2022-12-03T15:44:22.572Z,3.40
2022-12-03T15:46:49.249Z,3.40
2022-12-03T15:49:15.909Z,3.50
2022-12-03T15:51:42.595Z,3.40
2022-12-03T15:54:09.285Z,3.40
2022-12-03T15:56:37.934Z,3.40
2022-12-03T15:59:04.680Z,3.40
2022-12-03T16:01:31.557Z,3.40
2022-12-03T16:03:58.321Z,3.40
2022-12-03T16:06:24.951Z,3.40
2022-12-03T16:08:51.595Z,3.40
2022-12-03T16:11:18.271Z,3.40
2022-12-03T16:13:44.939Z,3.40
2022-12-03T16:16:11.625Z,3.40
2022-12-03T16:18:38.319Z,3.40
2022-12-03T16:21:04.966Z,3.30
2022-12-03T16:23:31.763Z,3.30
2022-12-03T16:26:01.270Z,3.30
2022-12-03T16:28:27.993Z,3.30
2022-12-03T16:30:54.842Z,3.30
2022-12-03T16:40:28.648Z,3.30
2022-12-03T16:43:13.519Z,3.30
2022-12-03T16:45:46.232Z,3.30
2022-12-03T16:48:12.938Z,3.30
2022-12-03T16:50:40.051Z,3.30
2022-12-03T16:53:06.714Z,3.30
2022-12-03T16:55:52.152Z,3.30
2022-12-03T17:02:05.512Z,3.40
2022-12-03T17:05:00.270Z,3.30
2022-12-03T17:07:30.932Z,3.30
2022-12-03T17:10:00.377Z,3.20
2022-12-03T17:12:37.527Z,3.20
2022-12-03T17:16:41.289Z,3.10
2022-12-03T17:22:45.971Z,3.20
2022-12-03T17:28:42.072Z,3.20
2022-12-03T17:31:43.013Z,3.20
2022-12-03T17:34:11.517Z,3.30
2022-12-03T17:36:39.666Z,3.30
2022-12-03T17:39:08.914Z,3.30
2022-12-03T17:41:45.826Z,3.30
2022-12-03T17:45:22.882Z,3.30
2022-12-03T17:57:56.056Z,3.30
2022-12-03T18:00:22.822Z,3.30
2022-12-03T18:02:49.624Z,3.30
2022-12-03T18:05:20.943Z,3.30
2022-12-03T18:07:47.800Z,3.30
2022-12-03T18:10:17.630Z,3.30
2022-12-03T18:13:08.330Z,3.30
2022-12-03T18:15:49.810Z,3.20
2022-12-03T18:18:16.677Z,3.20
2022-12-03T18:20:48.918Z,3.30
2022-12-03T18:23:17.635Z,3.30
2022-12-03T18:25:44.265Z,3.30
2022-12-03T18:28:10.937Z,3.30
2022-12-03T18:30:37.570Z,3.30
2022-12-03T18:33:04.364Z,3.30
2022-12-03T18:35:31.222Z,3.30
2022-12-03T18:37:57.828Z,3.30
2022-12-03T18:40:25.200Z,3.30
2022-12-03T18:42:51.803Z,3.30
2022-12-03T18:45:18.938Z,3.30
2022-12-03T18:47:45.684Z,3.30
2022-12-03T18:50:12.656Z,3.30
2022-12-03T18:52:39.376Z,3.30
2022-12-03T18:55:06.589Z,3.40
2022-12-03T18:57:33.284Z,3.40
2022-12-03T19:00:00.127Z,3.30
2022-12-03T19:02:54.234Z,3.30
2022-12-03T19:05:13.389Z,3.30
2022-12-03T19:07:40.117Z,3.30
2022-12-03T19:10:34.000Z,3.30
2022-12-03T19:13:10.326Z,3.30
2022-12-03T19:19:09.540Z,3.40
2022-12-03T19:21:36.479Z,3.40
2022-12-03T19:26:54.441Z,3.40
2022-12-03T19:29:24.585Z,3.30
2022-12-03T19:31:51.973Z,3.40
2022-12-03T19:34:25.176Z,3.40
2022-12-03T19:36:51.871Z,3.40
2022-12-03T19:39:22.599Z,3.30
2022-12-03T19:41:49.370Z,3.40
2022-12-03T19:44:16.616Z,3.30
2022-12-03T19:46:57.349Z,3.30
2022-12-03T19:49:24.347Z,3.30
2022-12-03T19:51:51.094Z,3.30
2022-12-03T19:54:17.806Z,3.20
2022-12-03T19:56:44.572Z,3.20
2022-12-03T19:59:14.586Z,3.20
2022-12-03T20:01:43.070Z,3.20
2022-12-03T20:04:10.911Z,3.20
2022-12-03T20:06:39.050Z,3.20
2022-12-03T20:09:13.480Z,3.20
2022-12-03T20:14:34.190Z,3.10
2022-12-03T20:17:25.016Z,3.10
2022-12-03T20:19:52.079Z,3.00
2022-12-03T20:22:18.903Z,3.00
2022-12-03T20:24:45.573Z,3.10
2022-12-03T20:27:12.270Z,3.10
2022-12-03T20:29:39.505Z,3.10
2022-12-03T20:32:07.121Z,3.10
2022-12-03T20:34:35.987Z,3.00
2022-12-03T20:37:03.041Z,3.00
2022-12-03T20:39:29.744Z,3.00
2022-12-03T20:41:56.443Z,2.90
2022-12-03T20:44:23.075Z,2.90
2022-12-03T20:46:49.799Z,2.90
2022-12-03T20:49:16.553Z,3.00
2022-12-03T20:51:43.238Z,2.90
2022-12-03T20:54:09.975Z,2.90
2022-12-03T20:56:39.295Z,3.00
2022-12-03T20:59:10.389Z,3.00
2022-12-03T21:01:38.494Z,3.00
2022-12-03T21:04:06.581Z,3.00
2022-12-03T21:06:34.910Z,3.00
2022-12-03T21:09:04.289Z,3.00
2022-12-03T21:11:31.772Z,3.00
2022-12-03T21:13:59.655Z,2.90
2022-12-03T21:19:29.496Z,2.80
2022-12-03T21:48:20.537Z,2.70
2022-12-03T21:58:37.243Z,2.70
2022-12-03T22:38:12.614Z,2.90
2022-12-03T22:40:39.463Z,2.80
2022-12-03T22:43:16.817Z,2.80
2022-12-03T22:53:50.417Z,2.70
2022-12-03T22:55:08.573Z,2.70
2022-12-03T23:04:23.955Z,2.80
2022-12-03T23:11:03.321Z,2.80
2022-12-03T23:13:28.179Z,2.80
2022-12-03T23:19:23.479Z,2.70
2022-12-03T23:21:50.191Z,2.70
2022-12-03T23:24:23.021Z,2.70
2022-12-03T23:26:56.624Z,2.70
2022-12-03T23:29:24.602Z,2.70
2022-12-03T23:32:17.572Z,2.80
2022-12-03T23:34:48.126Z,2.80
2022-12-03T23:37:28.576Z,2.80
2022-12-03T23:46:24.207Z,2.80
2022-12-03T23:49:01.592Z,2.70
2022-12-03T23:51:34.800Z,2.70
2022-12-03T23:54:12.989Z,2.70
2022-12-03T23:56:41.025Z,2.70
2022-12-03T23:59:07.820Z,2.70
